Time;durP1;ratioP1;P1;durP2;ratioP2;P2;SDS_P1;SDS_P2;PMS_P1;PMS_P2;Temp;Humidity;BMP_temperature;BMP_pressure;BME280_temperature;BME280_humidity;BME280_pressure;Samples;Min_cycle;Max_cycle;Signal;HPM_P1;HPM_P2
2024/04/26 00:01:47;;;;;;;21.55;19.85;;;5.20;99.90;;;;;;5377313;26;20039;-75
2024/04/26 00:04:14;;;;;;;21.05;19.50;;;5.10;99.90;;;;;;5385803;26;20000;-74
2024/04/26 00:06:42;;;;;;;22.08;20.35;;;5.10;99.90;;;;;;5389416;26;20379;-75
2024/04/26 00:09:09;;;;;;;21.20;19.55;;;5.10;99.90;;;;;;5392122;26;20544;-73
2024/04/26 00:11:39;;;;;;;22.27;20.23;;;5.10;99.90;;;;;;5359946;26;20140;-75
2024/04/26 00:14:07;;;;;;;21.60;19.73;;;5.10;99.90;;;;;;5349269;26;20006;-74
2024/04/26 00:16:40;;;;;;;21.73;20.02;;;5.10;99.90;;;;;;5386641;26;19996;-74
2024/04/26 00:19:07;;;;;;;21.45;19.73;;;5.20;99.90;;;;;;5353426;26;20003;-74
2024/04/26 00:21:44;;;;;;;22.42;20.52;;;5.20;99.90;;;;;;5383125;26;20013;-74
2024/04/26 00:24:18;;;;;;;21.92;20.23;;;5.20;99.90;;;;;;5360838;26;20175;-74
2024/04/26 00:26:50;;;;;;;22.00;20.20;;;5.20;99.90;;;;;;5383109;26;19995;-74
2024/04/26 00:29:18;;;;;;;22.60;20.70;;;5.20;99.90;;;;;;5390728;26;20784;-73
2024/04/26 00:31:45;;;;;;;22.35;20.65;;;5.20;99.90;;;;;;5361946;26;20079;-74
2024/04/26 00:34:13;;;;;;;22.48;20.70;;;5.20;99.90;;;;;;5393413;26;20093;-73
2024/04/26 00:36:41;;;;;;;22.50;20.52;;;5.10;99.90;;;;;;5389259;26;20010;-74
2024/04/26 00:39:08;;;;;;;21.48;19.83;;;5.20;99.90;;;;;;5375596;26;20022;-73
2024/04/26 00:41:35;;;;;;;21.63;19.75;;;5.20;99.90;;;;;;5387537;26;22503;-73
2024/04/26 00:44:12;;;;;;;21.45;19.80;;;5.20;99.90;;;;;;5395801;26;20010;-74
2024/04/26 00:46:44;;;;;;;21.98;19.92;;;5.20;99.90;;;;;;5389730;26;20013;-75
2024/04/26 00:49:12;;;;;;;21.75;19.80;;;5.10;99.90;;;;;;5351762;26;20466;-75
2024/04/26 00:51:40;;;;;;;22.73;20.35;;;5.10;99.90;;;;;;5384505;26;20007;-74
2024/04/26 00:54:08;;;;;;;21.40;19.60;;;5.10;99.90;;;;;;5355278;26;20003;-75
2024/04/26 00:56:36;;;;;;;21.40;19.50;;;5.10;99.90;;;;;;5394278;26;20003;-74
2024/04/26 00:59:05;;;;;;;22.20;20.38;;;5.10;99.90;;;;;;5382119;26;20089;-73
2024/04/26 01:01:33;;;;;;;22.15;20.23;;;5.10;99.90;;;;;;5359147;26;20004;-75
2024/04/26 01:06:53;;;;;;;22.45;20.42;;;5.00;99.90;;;;;;5434555;26;20047;-77
2024/04/26 01:09:20;;;;;;;22.08;20.23;;;5.00;99.90;;;;;;5382275;26;20023;-75
2024/04/26 01:11:47;;;;;;;22.35;20.25;;;5.00;99.90;;;;;;5388795;26;20021;-76
2024/04/26 01:14:14;;;;;;;21.27;19.58;;;4.90;99.90;;;;;;5383328;26;20111;-75
2024/04/26 01:16:41;;;;;;;21.98;20.10;;;4.90;99.90;;;;;;5381675;26;20014;-76
2024/04/26 01:19:13;;;;;;;22.13;20.13;;;4.90;99.90;;;;;;5379806;26;20056;-77
2024/04/26 01:21:42;;;;;;;21.85;20.15;;;4.80;99.90;;;;;;5385827;26;20493;-76
2024/04/26 01:24:09;;;;;;;21.45;19.85;;;4.90;99.90;;;;;;5376966;26;20863;-74
2024/04/26 01:26:36;;;;;;;20.98;19.45;;;4.80;99.90;;;;;;5372726;26;20075;-74
2024/04/26 01:29:03;;;;;;;21.60;19.80;;;4.90;99.90;;;;;;5342326;26;20015;-73
2024/04/26 01:31:31;;;;;;;21.70;19.88;;;4.80;99.90;;;;;;5348821;26;20014;-74
2024/04/26 01:33:58;;;;;;;22.67;20.90;;;4.80;99.90;;;;;;5340489;26;20074;-76
2024/04/26 01:36:25;;;;;;;22.13;20.38;;;4.80;99.90;;;;;;5360261;26;20004;-74
2024/04/26 01:38:52;;;;;;;23.08;21.15;;;4.80;99.90;;;;;;5387171;26;20022;-74
2024/04/26 01:41:19;;;;;;;21.63;19.85;;;4.80;99.90;;;;;;5381547;26;20636;-74
2024/04/26 01:43:46;;;;;;;22.58;20.55;;;4.80;99.90;;;;;;5356755;26;20004;-73
2024/04/26 01:46:13;;;;;;;21.50;19.40;;;4.80;99.90;;;;;;5349715;26;20040;-77
2024/04/26 01:48:41;;;;;;;21.63;19.60;;;4.80;99.90;;;;;;5382012;26;21221;-76
2024/04/26 01:51:08;;;;;;;22.45;20.83;;;4.80;99.90;;;;;;5379385;26;20003;-76
2024/04/26 01:53:35;;;;;;;22.00;20.23;;;4.80;99.90;;;;;;5383884;26;20485;-76
2024/04/26 01:56:02;;;;;;;22.40;20.60;;;4.80;99.90;;;;;;5379972;26;20521;-76
2024/04/26 01:58:29;;;;;;;22.35;20.48;;;4.80;99.90;;;;;;5379917;26;20060;-73
2024/04/26 02:00:57;;;;;;;22.40;20.42;;;4.90;99.90;;;;;;5376628;26;20008;-74
2024/04/26 02:03:24;;;;;;;21.45;19.83;;;4.90;99.90;;;;;;5357326;26;20007;-76
2024/04/26 02:05:51;;;;;;;22.65;20.52;;;4.90;99.90;;;;;;5384367;26;20072;-75
2024/04/26 02:08:18;;;;;;;23.17;21.17;;;4.90;99.90;;;;;;5375780;26;20173;-74
2024/04/26 02:10:45;;;;;;;22.55;20.85;;;4.90;99.90;;;;;;5383213;26;20000;-76
2024/04/26 02:13:12;;;;;;;22.67;20.98;;;4.90;99.90;;;;;;5378131;26;20072;-74
2024/04/26 02:15:39;;;;;;;22.85;21.15;;;4.90;99.90;;;;;;5385127;26;20035;-74
2024/04/26 02:18:06;;;;;;;22.40;20.60;;;4.90;99.90;;;;;;5372139;26;20007;-75
2024/04/26 02:20:34;;;;;;;23.55;21.30;;;5.00;99.90;;;;;;5382539;26;20014;-75
2024/04/26 02:23:01;;;;;;;23.08;21.02;;;5.00;99.90;;;;;;5380405;26;20015;-74
2024/04/26 02:25:28;;;;;;;23.05;21.10;;;5.00;99.90;;;;;;5286124;26;20020;-74
2024/04/26 02:27:55;;;;;;;23.48;21.33;;;4.90;99.90;;;;;;5348464;26;20025;-75
2024/04/26 02:30:22;;;;;;;23.48;21.30;;;4.90;99.90;;;;;;5353954;26;20131;-74
2024/04/26 02:32:49;;;;;;;22.80;20.90;;;4.80;99.90;;;;;;5361179;26;20001;-74
2024/04/26 02:35:17;;;;;;;22.08;20.38;;;4.80;99.90;;;;;;5356076;26;20593;-74
2024/04/26 02:37:44;;;;;;;24.05;21.92;;;4.80;99.90;;;;;;5381794;26;20598;-75
2024/04/26 02:40:11;;;;;;;23.27;21.23;;;4.70;99.90;;;;;;5384350;26;20006;-74
2024/04/26 02:42:38;;;;;;;23.15;21.25;;;4.70;99.90;;;;;;5395208;26;21929;-74
2024/04/26 02:45:06;;;;;;;23.58;21.35;;;4.80;99.90;;;;;;5379187;26;20007;-74
2024/04/26 02:47:34;;;;;;;22.67;20.88;;;4.80;99.90;;;;;;5383336;26;20007;-75
2024/04/26 02:50:02;;;;;;;22.75;21.15;;;4.80;99.90;;;;;;5382721;26;20699;-75
2024/04/26 02:52:29;;;;;;;23.60;21.50;;;4.90;99.90;;;;;;5385503;26;20349;-75
2024/04/26 02:54:56;;;;;;;22.15;20.40;;;4.90;99.90;;;;;;5383873;26;20032;-75
2024/04/26 02:57:23;;;;;;;22.42;20.65;;;4.90;99.90;;;;;;5352300;26;20000;-73
2024/04/26 02:59:51;;;;;;;23.17;21.02;;;4.90;99.90;;;;;;5391867;26;20003;-75
2024/04/26 03:02:20;;;;;;;22.30;20.60;;;4.90;99.90;;;;;;5387238;26;21358;-75
2024/04/26 03:04:47;;;;;;;22.63;20.70;;;4.90;99.90;;;;;;5378837;26;20016;-74
2024/04/26 03:07:15;;;;;;;22.00;20.25;;;4.90;99.90;;;;;;5382594;26;20015;-74
2024/04/26 03:09:44;;;;;;;22.67;20.88;;;4.90;99.90;;;;;;5395790;26;20110;-74
2024/04/26 03:12:11;;;;;;;24.83;21.10;;;4.90;99.90;;;;;;5385623;26;20003;-75
2024/04/26 03:14:38;;;;;;;22.55;20.40;;;4.90;99.90;;;;;;5381352;26;20040;-75
2024/04/26 03:17:07;;;;;;;22.25;20.30;;;4.90;99.90;;;;;;5383530;26;20013;-76
2024/04/26 03:19:34;;;;;;;21.58;20.05;;;4.90;99.90;;;;;;5390821;26;20073;-74
2024/04/26 03:22:01;;;;;;;22.35;20.38;;;4.90;99.90;;;;;;5380230;26;20000;-74
2024/04/26 03:24:28;;;;;;;22.55;20.40;;;4.90;99.90;;;;;;5349379;26;19996;-75
2024/04/26 03:26:56;;;;;;;22.45;20.55;;;4.90;99.90;;;;;;5390612;26;20000;-73
2024/04/26 03:29:23;;;;;;;22.15;20.25;;;4.90;99.90;;;;;;5361444;26;19996;-74
2024/04/26 03:31:53;;;;;;;22.38;20.50;;;4.90;99.90;;;;;;5397172;26;20638;-75
2024/04/26 03:34:23;;;;;;;21.98;20.35;;;4.80;99.90;;;;;;5378129;26;20022;-74
2024/04/26 03:36:50;;;;;;;22.48;20.58;;;4.90;99.90;;;;;;5359824;26;20018;-76
2024/04/26 03:39:17;;;;;;;21.90;20.23;;;4.90;99.90;;;;;;5383030;26;20008;-73
2024/04/26 03:41:44;;;;;;;23.27;21.33;;;4.90;99.90;;;;;;5388695;26;19999;-75
2024/04/26 03:44:11;;;;;;;20.63;19.13;;;4.90;99.90;;;;;;5380730;26;20424;-75
2024/04/26 03:46:45;;;;;;;22.40;20.60;;;4.80;99.90;;;;;;5361488;26;19995;-75
2024/04/26 03:49:12;;;;;;;21.65;20.00;;;4.90;99.90;;;;;;5369794;26;20026;-75
2024/04/26 03:51:39;;;;;;;21.10;19.45;;;4.90;99.90;;;;;;5385970;26;19999;-76
2024/04/26 03:54:06;;;;;;;21.13;19.42;;;4.90;99.90;;;;;;5377030;26;20022;-75
2024/04/26 03:56:34;;;;;;;21.58;19.77;;;4.90;99.90;;;;;;5391172;26;20013;-74
2024/04/26 03:59:01;;;;;;;22.33;20.17;;;4.90;99.90;;;;;;5387311;26;20003;-77
2024/04/26 04:01:28;;;;;;;22.17;20.52;;;4.90;99.90;;;;;;5386868;26;20003;-76
2024/04/26 04:03:56;;;;;;;24.08;21.92;;;4.90;99.90;;;;;;5393569;26;20013;-74
2024/04/26 04:06:23;;;;;;;22.73;20.83;;;4.90;99.90;;;;;;5394406;26;21641;-76
2024/04/26 04:08:50;;;;;;;23.67;21.33;;;4.90;99.90;;;;;;5394615;26;20011;-75
2024/04/26 04:11:17;;;;;;;22.48;20.40;;;4.90;99.90;;;;;;5377141;26;20056;-77
2024/04/26 04:13:46;;;;;;;22.60;20.63;;;4.90;99.90;;;;;;5388306;26;20670;-74
2024/04/26 04:16:14;;;;;;;22.33;20.42;;;4.90;99.90;;;;;;5355659;26;19996;-75
2024/04/26 04:18:41;;;;;;;23.05;21.08;;;4.90;99.90;;;;;;5355920;26;20037;-74
2024/04/26 04:21:08;;;;;;;23.50;21.35;;;4.90;99.90;;;;;;5364452;26;20037;-74
2024/04/26 04:23:35;;;;;;;24.38;21.83;;;5.00;99.90;;;;;;5339357;26;20083;-74
2024/04/26 04:26:03;;;;;;;23.20;21.40;;;5.00;99.90;;;;;;5350375;26;20015;-75
2024/04/26 04:28:30;;;;;;;23.13;21.15;;;5.00;99.90;;;;;;5320208;26;20005;-75
2024/04/26 04:30:57;;;;;;;23.85;21.38;;;5.00;99.90;;;;;;5362018;26;20004;-74
2024/04/26 04:33:24;;;;;;;22.45;20.65;;;5.00;99.90;;;;;;5377994;26;20063;-73
2024/04/26 04:35:51;;;;;;;25.33;22.92;;;5.00;99.90;;;;;;5391718;26;20003;-73
2024/04/26 04:38:19;;;;;;;23.40;21.30;;;5.00;99.90;;;;;;5394647;26;20000;-75
2024/04/26 04:40:46;;;;;;;21.85;19.95;;;5.00;99.90;;;;;;5412271;26;20006;-76
2024/04/26 04:43:13;;;;;;;22.60;20.95;;;5.00;99.90;;;;;;5396963;26;20505;-73
2024/04/26 04:45:40;;;;;;;30.67;28.40;;;5.00;99.90;;;;;;5356210;26;22204;-75
2024/04/26 04:48:08;;;;;;;25.33;23.42;;;5.00;99.90;;;;;;5374256;26;20004;-74
2024/04/26 04:50:35;;;;;;;25.27;23.45;;;5.00;99.90;;;;;;5388380;26;20691;-74
2024/04/26 04:53:05;;;;;;;29.63;27.25;;;5.00;99.90;;;;;;5385756;26;20011;-74
2024/04/26 04:55:35;;;;;;;28.58;26.38;;;5.10;99.90;;;;;;5381448;26;20515;-77
2024/04/26 04:58:03;;;;;;;30.58;27.65;;;5.00;99.90;;;;;;5382955;26;19995;-76
2024/04/26 05:00:30;;;;;;;28.50;26.10;;;5.00;99.90;;;;;;5378881;26;20089;-75
2024/04/26 05:02:57;;;;;;;29.67;27.02;;;5.10;99.90;;;;;;5398327;26;19999;-74
2024/04/26 05:05:24;;;;;;;27.77;25.65;;;5.10;99.90;;;;;;5397862;26;20261;-74
2024/04/26 05:07:53;;;;;;;27.48;25.45;;;5.10;99.90;;;;;;5400519;26;20007;-76
2024/04/26 05:10:21;;;;;;;28.20;25.95;;;5.10;99.90;;;;;;5353494;26;20072;-74
2024/04/26 05:12:48;;;;;;;27.40;25.45;;;5.10;99.90;;;;;;5386160;26;20030;-74
2024/04/26 05:15:15;;;;;;;27.90;25.80;;;5.20;99.90;;;;;;5378593;26;20517;-75
2024/04/26 05:17:47;;;;;;;27.85;25.70;;;5.20;99.90;;;;;;5381567;26;20003;-75
2024/04/26 05:20:17;;;;;;;28.52;26.15;;;5.20;99.90;;;;;;5379307;26;20723;-73
2024/04/26 05:22:45;;;;;;;27.70;25.70;;;5.20;99.90;;;;;;5379922;26;20383;-75
2024/04/26 05:25:12;;;;;;;27.75;25.50;;;5.30;99.90;;;;;;5383171;26;20080;-77
2024/04/26 05:27:39;;;;;;;27.50;25.33;;;5.30;99.90;;;;;;5384388;26;20146;-77
2024/04/26 05:30:06;;;;;;;28.23;26.27;;;5.30;99.90;;;;;;5381532;26;20030;-75
2024/04/26 05:32:34;;;;;;;28.08;26.08;;;5.30;99.90;;;;;;5380585;26;20020;-76
2024/04/26 05:35:01;;;;;;;28.73;26.63;;;5.40;99.90;;;;;;5379841;26;20070;-75
2024/04/26 05:37:28;;;;;;;29.63;27.42;;;5.40;99.90;;;;;;5350261;26;20004;-76
2024/04/26 05:39:55;;;;;;;29.05;26.98;;;5.40;99.90;;;;;;5413297;26;20061;-76
2024/04/26 05:42:22;;;;;;;28.33;26.10;;;5.40;99.90;;;;;;5382886;26;20016;-78
2024/04/26 05:44:49;;;;;;;30.42;28.02;;;5.40;99.90;;;;;;5387008;26;20431;-76
2024/04/26 05:47:16;;;;;;;29.58;27.70;;;5.50;99.90;;;;;;5364190;26;20006;-75
2024/04/26 05:49:43;;;;;;;30.58;28.08;;;5.50;99.90;;;;;;5283011;26;20001;-74
2024/04/26 05:52:11;;;;;;;34.28;31.40;;;5.60;99.90;;;;;;5322067;26;20008;-75
2024/04/26 05:54:38;;;;;;;29.77;27.85;;;5.60;99.90;;;;;;5262641;26;20099;-75
2024/04/26 05:57:05;;;;;;;29.58;27.27;;;5.70;99.90;;;;;;5308892;26;20562;-76
2024/04/26 05:59:34;;;;;;;31.27;29.08;;;5.80;99.90;;;;;;5303650;26;21098;-76
2024/04/26 06:02:01;;;;;;;29.42;27.15;;;5.80;99.90;;;;;;5342184;26;20080;-75
2024/04/26 06:04:28;;;;;;;29.38;27.23;;;5.80;99.90;;;;;;5384665;26;20014;-75
2024/04/26 06:06:55;;;;;;;29.85;27.25;;;5.80;99.90;;;;;;5380929;26;20677;-74
2024/04/26 06:09:22;;;;;;;28.42;26.23;;;5.90;99.90;;;;;;5382478;26;20007;-75
2024/04/26 06:11:49;;;;;;;35.28;32.72;;;6.00;99.90;;;;;;5357609;26;20014;-74
2024/04/26 06:14:19;;;;;;;33.60;30.95;;;6.00;99.90;;;;;;5347530;26;20018;-74
2024/04/26 06:16:46;;;;;;;33.38;30.95;;;6.00;99.90;;;;;;5348851;26;20013;-76
2024/04/26 06:19:13;;;;;;;34.15;31.55;;;6.10;99.90;;;;;;5379437;26;19999;-75
2024/04/26 06:21:42;;;;;;;31.85;29.63;;;6.10;99.90;;;;;;5375901;26;20020;-75
2024/04/26 06:24:09;;;;;;;32.50;30.30;;;6.10;99.90;;;;;;5377869;26;20039;-74
2024/04/26 06:26:37;;;;;;;32.92;30.42;;;6.10;99.90;;;;;;5380550;26;20841;-76
2024/04/26 06:29:05;;;;;;;32.85;30.45;;;6.20;99.90;;;;;;5389624;26;19996;-75
2024/04/26 06:31:32;;;;;;;32.92;30.42;;;6.20;99.90;;;;;;5379603;26;20007;-76
2024/04/26 06:33:59;;;;;;;34.28;31.88;;;6.20;99.90;;;;;;5357396;26;20039;-76
2024/04/26 06:36:26;;;;;;;29.45;27.13;;;6.30;99.90;;;;;;5384705;26;20039;-73
2024/04/26 06:38:53;;;;;;;29.58;26.98;;;6.30;99.90;;;;;;5383107;26;20011;-76
2024/04/26 06:41:20;;;;;;;29.10;26.52;;;6.40;99.90;;;;;;5381240;26;20023;-74
2024/04/26 06:43:47;;;;;;;29.55;27.08;;;6.50;99.90;;;;;;5301643;26;20009;-76
2024/04/26 06:46:20;;;;;;;30.42;27.88;;;6.70;99.90;;;;;;5386612;26;20008;-77
2024/04/26 06:48:47;;;;;;;29.30;27.08;;;6.70;99.90;;;;;;5386950;26;20056;-76
2024/04/26 06:51:14;;;;;;;29.38;26.92;;;6.60;99.90;;;;;;5390269;26;20047;-76
2024/04/26 06:53:45;;;;;;;28.95;26.60;;;6.70;99.90;;;;;;5387803;26;20057;-75
2024/04/26 06:56:12;;;;;;;29.10;26.80;;;6.70;99.90;;;;;;5389867;26;20003;-76
2024/04/26 06:58:39;;;;;;;29.35;26.77;;;6.80;99.90;;;;;;5375129;26;20046;-76
2024/04/26 07:01:07;;;;;;;28.70;26.42;;;6.80;99.90;;;;;;5380197;26;20000;-76
2024/04/26 07:03:41;;;;;;;28.08;25.77;;;6.70;99.90;;;;;;5376803;26;20047;-75
2024/04/26 07:06:09;;;;;;;28.70;26.45;;;6.80;99.90;;;;;;5387876;26;20080;-75
2024/04/26 07:08:36;;;;;;;28.98;26.50;;;6.90;99.90;;;;;;5367774;26;20007;-76
2024/04/26 07:11:06;;;;;;;29.98;27.40;;;7.00;99.90;;;;;;5391820;26;20014;-77
2024/04/26 07:13:33;;;;;;;29.55;27.27;;;7.00;99.90;;;;;;5381399;26;20538;-75
2024/04/26 07:16:01;;;;;;;29.55;27.27;;;7.20;99.90;;;;;;5382721;26;20379;-76
2024/04/26 07:18:39;;;;;;;30.98;28.50;;;7.30;99.90;;;;;;5345747;26;21270;-76
2024/04/26 07:21:08;;;;;;;30.52;27.58;;;7.50;99.90;;;;;;5351650;26;20718;-77
2024/04/26 07:23:35;;;;;;;29.23;26.88;;;7.60;99.90;;;;;;5377207;26;20007;-77
2024/04/26 07:26:02;;;;;;;29.70;27.45;;;7.70;99.90;;;;;;5353606;26;20012;-76
2024/04/26 07:28:29;;;;;;;29.88;26.98;;;7.80;99.90;;;;;;5382291;26;20000;-77
2024/04/26 07:30:56;;;;;;;29.67;27.50;;;7.70;99.90;;;;;;5387102;26;20043;-77
2024/04/26 07:33:25;;;;;;;30.83;28.30;;;7.80;99.90;;;;;;5378374;26;20011;-75
2024/04/26 07:35:53;;;;;;;29.73;27.35;;;7.80;99.90;;;;;;5365933;26;19995;-78
2024/04/26 07:38:20;;;;;;;29.35;27.13;;;7.80;99.90;;;;;;5385210;26;20746;-77
2024/04/26 07:40:49;;;;;;;30.20;28.02;;;7.90;99.90;;;;;;5350460;26;20023;-78
2024/04/26 07:43:16;;;;;;;30.92;28.58;;;7.90;99.90;;;;;;5320622;26;20000;-78
2024/04/26 07:45:43;;;;;;;31.70;28.48;;;7.90;99.90;;;;;;5343598;26;20004;-75
2024/04/26 07:48:11;;;;;;;31.05;28.80;;;8.10;99.90;;;;;;5344238;26;20016;-75
2024/04/26 07:50:39;;;;;;;31.23;28.73;;;8.20;99.90;;;;;;5352793;26;20107;-77
2024/04/26 07:53:06;;;;;;;31.25;28.42;;;8.20;99.90;;;;;;5384172;26;20015;-76
2024/04/26 07:55:33;;;;;;;29.73;27.45;;;8.40;99.90;;;;;;5384657;26;20447;-76
2024/04/26 07:58:00;;;;;;;30.52;28.02;;;8.60;99.90;;;;;;5387393;26;20070;-77
2024/04/26 08:00:28;;;;;;;31.00;28.38;;;8.70;99.90;;;;;;5379171;26;20003;-78
2024/04/26 08:02:59;;;;;;;31.85;28.92;;;8.90;99.90;;;;;;5401338;26;20442;-78
2024/04/26 08:05:27;;;;;;;30.50;27.92;;;9.10;99.90;;;;;;5389213;26;20015;-74
2024/04/26 08:07:54;;;;;;;29.58;27.17;;;9.30;99.90;;;;;;5389787;26;20559;-75
2024/04/26 08:10:21;;;;;;;31.33;28.83;;;9.50;99.90;;;;;;5389281;26;20550;-75
2024/04/26 08:12:49;;;;;;;32.10;29.25;;;9.60;99.90;;;;;;5367944;26;20011;-75
2024/04/26 08:15:16;;;;;;;36.10;33.38;;;9.60;99.90;;;;;;5386808;26;20018;-76
2024/04/26 08:17:44;;;;;;;37.03;34.05;;;9.70;99.90;;;;;;5375809;26;20362;-75
2024/04/26 08:20:13;;;;;;;33.88;30.92;;;9.70;99.90;;;;;;5360545;26;20008;-75
2024/04/26 08:22:42;;;;;;;31.00;28.65;;;9.90;99.90;;;;;;5372863;26;20018;-76
2024/04/26 08:25:09;;;;;;;32.92;30.40;;;10.00;99.90;;;;;;5354899;26;20007;-76
2024/04/26 08:27:49;;;;;;;31.85;29.23;;;10.10;99.90;;;;;;5395178;26;20008;-77
2024/04/26 08:30:16;;;;;;;33.85;31.30;;;10.10;99.90;;;;;;5387544;26;20000;-78
2024/04/26 08:32:43;;;;;;;34.95;32.50;;;10.20;99.90;;;;;;5391986;26;20011;-78
2024/04/26 08:35:22;;;;;;;35.75;32.97;;;10.40;99.90;;;;;;5382559;26;20015;-79
2024/04/26 08:37:50;;;;;;;34.45;31.73;;;10.40;99.90;;;;;;5400614;26;20007;-77
2024/04/26 08:40:17;;;;;;;35.80;32.72;;;10.60;99.90;;;;;;5440674;26;19988;-75
2024/04/26 08:42:45;;;;;;;35.45;32.92;;;10.70;99.90;;;;;;5404173;26;20851;-76
2024/04/26 08:45:17;;;;;;;35.55;33.17;;;10.80;99.90;;;;;;5355491;26;20003;-76
2024/04/26 08:47:47;;;;;;;36.40;33.70;;;10.70;99.90;;;;;;5373077;26;20979;-77
2024/04/26 08:50:14;;;;;;;36.65;33.78;;;10.80;99.90;;;;;;5400877;26;20021;-77
2024/04/26 08:52:42;;;;;;;39.08;35.88;;;11.00;99.90;;;;;;5382353;26;20147;-78
2024/04/26 08:55:10;;;;;;;36.63;33.92;;;10.90;99.90;;;;;;5387756;26;20007;-76
2024/04/26 08:57:37;;;;;;;37.35;34.55;;;11.20;99.90;;;;;;5381157;26;20468;-76
2024/04/26 09:00:05;;;;;;;35.63;32.80;;;11.40;99.90;;;;;;5380979;26;20018;-77
2024/04/26 09:02:39;;;;;;;36.42;33.20;;;11.60;99.90;;;;;;5367441;26;20403;-76
2024/04/26 09:05:07;;;;;;;37.13;34.47;;;11.80;99.90;;;;;;5358103;26;20015;-78
2024/04/26 09:07:35;;;;;;;41.47;38.17;;;11.80;99.90;;;;;;5381705;26;20022;-77
2024/04/26 09:10:02;;;;;;;38.95;36.00;;;11.90;99.90;;;;;;5352761;26;20004;-76
2024/04/26 09:12:29;;;;;;;37.88;35.08;;;11.90;99.90;;;;;;5379029;26;20513;-76
2024/04/26 09:14:57;;;;;;;43.15;39.70;;;12.10;99.90;;;;;;5387140;26;20014;-77
2024/04/26 09:17:28;;;;;;;43.03;39.33;;;12.20;99.90;;;;;;5391866;26;20214;-77
2024/04/26 09:19:56;;;;;;;42.80;39.22;;;12.40;99.90;;;;;;5322864;26;20907;-76
2024/04/26 09:22:23;;;;;;;39.70;36.92;;;12.60;99.90;;;;;;5374218;26;20018;-77
2024/04/26 09:24:50;;;;;;;46.03;41.97;;;12.60;99.90;;;;;;5386188;26;20008;-74
2024/04/26 09:27:18;;;;;;;41.90;38.08;;;12.70;99.90;;;;;;5382574;26;20011;-76
2024/04/26 09:29:47;;;;;;;47.85;43.75;;;12.70;99.90;;;;;;5347624;26;21518;-76
2024/04/26 09:32:15;;;;;;;44.72;41.53;;;12.70;99.90;;;;;;5388833;26;20461;-76
2024/04/26 09:34:55;;;;;;;45.03;41.85;;;12.90;99.90;;;;;;5379839;26;20838;-77
2024/04/26 09:37:22;;;;;;;44.58;40.63;;;13.30;99.90;;;;;;5359883;26;21245;-77
2024/04/26 09:39:50;;;;;;;54.08;49.03;;;13.10;99.90;;;;;;5385628;26;21438;-77
2024/04/26 09:42:20;;;;;;;39.38;36.38;;;12.90;99.90;;;;;;5391142;26;20018;-76
2024/04/26 09:44:51;;;;;;;39.70;36.60;;;12.70;99.90;;;;;;5383860;26;20011;-76
2024/04/26 09:47:23;;;;;;;42.22;38.33;;;12.60;99.90;;;;;;5390176;26;20006;-76
2024/04/26 09:49:52;;;;;;;42.47;39.28;;;12.60;99.90;;;;;;5383097;26;20826;-75
2024/04/26 09:52:20;;;;;;;40.10;36.80;;;12.50;99.90;;;;;;5395888;26;20003;-77
2024/04/26 09:54:47;;;;;;;37.95;35.05;;;12.60;99.90;;;;;;5388381;26;20007;-76
2024/04/26 09:57:15;;;;;;;41.00;37.95;;;12.40;99.90;;;;;;5387971;26;20012;-76
2024/04/26 09:59:43;;;;;;;40.63;37.50;;;12.20;99.90;;;;;;5354221;26;20178;-77
2024/04/26 10:02:14;;;;;;;43.92;40.63;;;12.10;99.90;;;;;;5398085;26;19995;-76
2024/04/26 10:04:41;;;;;;;46.80;43.42;;;12.00;99.90;;;;;;5365234;26;20469;-78
2024/04/26 10:07:19;;;;;;;43.72;40.45;;;11.80;99.90;;;;;;5451823;26;20017;-77
2024/04/26 10:09:57;;;;;;;44.72;41.33;;;11.70;99.90;;;;;;5386845;26;20016;-77
2024/04/26 10:12:28;;;;;;;46.05;42.38;;;11.70;99.90;;;;;;5386393;26;20003;-76
2024/04/26 10:15:09;;;;;;;44.63;40.78;;;11.70;99.90;;;;;;5383330;26;20010;-76
2024/04/26 10:17:48;;;;;;;41.83;38.53;;;11.70;99.90;;;;;;5345453;26;20558;-76
2024/04/26 10:20:17;;;;;;;40.45;37.35;;;11.70;99.90;;;;;;5340305;26;20016;-77
2024/04/26 10:23:13;;;;;;;42.67;39.08;;;11.70;99.90;;;;;;5337818;26;20873;-76
2024/04/26 10:25:40;;;;;;;42.72;39.22;;;11.70;99.90;;;;;;5324980;26;20048;-77
2024/04/26 10:28:09;;;;;;;43.38;39.78;;;11.60;99.90;;;;;;5368533;26;20043;-75
2024/04/26 10:30:42;;;;;;;44.47;40.72;;;11.60;99.90;;;;;;5345391;26;20500;-77
2024/04/26 10:33:09;;;;;;;40.83;38.03;;;11.50;99.90;;;;;;5443547;26;20014;-78
2024/04/26 10:35:37;;;;;;;42.63;39.35;;;11.50;99.90;;;;;;5370188;26;20076;-75
2024/04/26 10:38:08;;;;;;;41.58;38.38;;;11.50;99.90;;;;;;5415035;26;20004;-76
2024/04/26 10:40:46;;;;;;;42.60;38.63;;;11.50;99.90;;;;;;5381383;26;20084;-74
2024/04/26 10:43:27;;;;;;;41.33;36.97;;;11.40;99.90;;;;;;5387118;26;20011;-75
2024/04/26 10:45:57;;;;;;;40.15;37.00;;;11.30;99.90;;;;;;5373539;26;20030;-75
2024/04/26 10:48:35;;;;;;;39.65;36.40;;;11.30;99.90;;;;;;5341491;26;20138;-77
2024/04/26 10:51:09;;;;;;;39.22;35.92;;;11.20;99.90;;;;;;5373780;26;20019;-73
2024/04/26 10:53:40;;;;;;;35.20;32.00;;;11.20;99.90;;;;;;5372819;26;20010;-78
2024/04/26 10:56:17;;;;;;;34.63;31.60;;;11.30;99.90;;;;;;5386984;26;20828;-75
2024/04/26 10:58:45;;;;;;;34.83;31.73;;;11.40;99.90;;;;;;5376462;26;20000;-76
2024/04/26 11:01:25;;;;;;;35.35;32.25;;;11.50;99.90;;;;;;5383375;26;20030;-78
2024/04/26 11:03:56;;;;;;;34.53;31.33;;;11.60;99.90;;;;;;5347118;26;19999;-76
2024/04/26 11:06:30;;;;;;;36.30;33.05;;;11.50;99.90;;;;;;5360754;26;20357;-76
2024/04/26 11:09:13;;;;;;;35.58;32.38;;;11.60;99.90;;;;;;5356363;26;20034;-77
2024/04/26 11:11:52;;;;;;;35.95;32.85;;;11.70;99.90;;;;;;5358322;26;20001;-80
2024/04/26 11:14:20;;;;;;;34.45;31.80;;;11.60;99.90;;;;;;5353381;26;20015;-77
2024/04/26 11:16:47;;;;;;;35.80;32.72;;;11.30;99.90;;;;;;5366506;26;20023;-76
2024/04/26 11:19:15;;;;;;;35.67;32.47;;;11.30;99.90;;;;;;5322506;26;20006;-77
2024/04/26 11:21:43;;;;;;;35.05;32.03;;;11.30;99.90;;;;;;5369941;26;20388;-75
2024/04/26 11:24:14;;;;;;;35.00;31.98;;;11.40;99.90;;;;;;5353086;26;20052;-76
2024/04/26 11:26:41;;;;;;;36.50;33.15;;;11.30;99.90;;;;;;5335056;26;20039;-76
2024/04/26 11:29:08;;;;;;;37.67;34.28;;;11.40;99.90;;;;;;5359840;26;20011;-75
2024/04/26 11:31:40;;;;;;;40.85;37.58;;;11.40;99.90;;;;;;5393874;26;19992;-77
2024/04/26 11:34:08;;;;;;;40.85;37.25;;;11.30;99.90;;;;;;5358540;26;20038;-78
2024/04/26 11:36:38;;;;;;;41.97;38.78;;;11.20;99.90;;;;;;5383024;26;20004;-76
2024/04/26 11:39:06;;;;;;;40.17;36.70;;;11.20;99.90;;;;;;5376848;26;20044;-75
2024/04/26 11:41:33;;;;;;;40.28;36.92;;;11.10;99.90;;;;;;5358043;26;20414;-76
2024/04/26 11:44:02;;;;;;;40.65;37.30;;;11.00;99.90;;;;;;5352125;26;20324;-76
2024/04/26 11:46:29;;;;;;;39.33;36.00;;;10.80;99.90;;;;;;5368067;26;20012;-76
2024/04/26 11:48:59;;;;;;;38.78;35.40;;;10.90;99.90;;;;;;5371993;26;20030;-76
2024/04/26 11:51:26;;;;;;;39.05;35.70;;;10.80;99.90;;;;;;5351807;26;20027;-76
2024/04/26 11:53:57;;;;;;;36.80;33.67;;;10.90;99.90;;;;;;5345062;26;20035;-76
2024/04/26 11:56:26;;;;;;;37.33;34.13;;;10.90;99.90;;;;;;5343491;26;20020;-77
2024/04/26 11:58:56;;;;;;;38.67;35.28;;;11.00;99.90;;;;;;5340647;26;20015;-77
2024/04/26 12:01:23;;;;;;;36.38;33.28;;;11.10;99.90;;;;;;5347010;26;20954;-77
2024/04/26 12:03:50;;;;;;;37.72;34.05;;;11.10;99.90;;;;;;5347282;26;20311;-77
2024/04/26 12:06:17;;;;;;;39.65;36.15;;;11.10;99.90;;;;;;5353597;26;20000;-76
2024/04/26 12:08:46;;;;;;;39.90;36.20;;;11.10;99.90;;;;;;5350224;26;20027;-77
2024/04/26 12:11:17;;;;;;;38.88;35.53;;;11.10;99.90;;;;;;5363094;26;20478;-75
2024/04/26 12:13:52;;;;;;;41.15;37.03;;;11.10;99.90;;;;;;5347394;26;20004;-74
2024/04/26 12:16:25;;;;;;;38.78;35.60;;;11.00;99.90;;;;;;5347700;26;20004;-76
2024/04/26 12:18:52;;;;;;;37.08;34.13;;;11.10;99.90;;;;;;5344169;26;20546;-75
2024/04/26 12:21:23;;;;;;;38.80;35.65;;;11.10;99.90;;;;;;5352194;26;20006;-77
2024/04/26 12:23:53;;;;;;;39.97;36.25;;;11.00;99.90;;;;;;5340936;26;20335;-79
2024/04/26 12:26:22;;;;;;;39.45;36.22;;;11.10;99.90;;;;;;5321258;26;20033;-75
2024/04/26 12:28:53;;;;;;;40.22;36.65;;;11.00;99.90;;;;;;5346201;26;20012;-77
2024/04/26 12:31:21;;;;;;;41.10;37.75;;;11.10;99.90;;;;;;5351512;26;20012;-76
2024/04/26 12:33:49;;;;;;;40.38;36.83;;;11.10;99.90;;;;;;5344020;26;20000;-77
2024/04/26 12:36:17;;;;;;;40.25;36.83;;;11.10;99.90;;;;;;5344304;26;20000;-76
2024/04/26 12:38:44;;;;;;;40.35;36.72;;;11.00;99.90;;;;;;5347619;26;20010;-78
2024/04/26 12:41:12;;;;;;;40.17;36.88;;;11.10;99.90;;;;;;5356378;26;20055;-77
2024/04/26 12:43:39;;;;;;;40.80;37.00;;;11.00;99.90;;;;;;5327685;26;19996;-76